Weather at Cranbrook (East Kootenay Regional Hospital) Heliport

Public forecast

Using degrees Celsius for public forecast. Weather courtesy of forecast.io.

Closest aviation weather report (METAR) to Cranbrook (East Kootenay Regional Hospital) Heliport

Closest report is Cranbrook/Canadian Rockies International Airport, 6.0 nm (11.2 km) NNW.

2024/07/13 23:00 (retrieved 11 minutes ago)

CYXC 132300Z 25005KT 220V290 25SM FEW100 34/04 A2994 RMK CU2 SLP113 DENSITY ALT 5900FT

Closest aviation forecast (TAF) to Cranbrook (East Kootenay Regional Hospital) Heliport

Closest forecast is Cranbrook/Canadian Rockies International Airport, 6.0 nm (11.2 km) NNW.

2024/07/13 19:42 (retrieved 3 hours ago)

TAF CYXC 131840Z 1319/1407 12005KT P6SM FEW110 FM132100 24008KT P6SM SCT120 TEMPO 1321/1403 VRB15G25KT P6SM -SHRA VCTS BKN100CB RMK NXT FCST BY 140100Z